sensor_id;sensor_type;location;lat;lon;timestamp;temperature;humidity
5870;DHT22;2961;47.702;9.410;2023-04-25T00:02:00;8.80;99.90
5870;DHT22;2961;47.702;9.410;2023-04-25T00:04:28;8.80;99.90
5870;DHT22;2961;47.702;9.410;2023-04-25T00:06:57;8.80;99.90
5870;DHT22;2961;47.702;9.410;2023-04-25T00:09:23;8.80;99.90
5870;DHT22;2961;47.702;9.410;2023-04-25T00:11:50;8.70;99.90
5870;DHT22;2961;47.702;9.410;2023-04-25T00:14:17;8.80;99.90
5870;DHT22;2961;47.702;9.410;2023-04-25T00:16:44;8.80;99.90
5870;DHT22;2961;47.702;9.410;2023-04-25T00:19:10;8.80;99.90
5870;DHT22;2961;47.702;9.410;2023-04-25T00:21:38;8.80;99.90
5870;DHT22;2961;47.702;9.410;2023-04-25T00:24:07;8.70;99.90
5870;DHT22;2961;47.702;9.410;2023-04-25T00:26:34;8.70;99.90
5870;DHT22;2961;47.702;9.410;2023-04-25T00:29:01;8.70;99.90
5870;DHT22;2961;47.702;9.410;2023-04-25T00:31:28;8.70;99.90
5870;DHT22;2961;47.702;9.410;2023-04-25T00:33:55;8.80;99.90
5870;DHT22;2961;47.702;9.410;2023-04-25T00:36:22;8.80;99.90
5870;DHT22;2961;47.702;9.410;2023-04-25T00:38:49;8.80;99.90
5870;DHT22;2961;47.702;9.410;2023-04-25T00:41:17;8.80;99.90
5870;DHT22;2961;47.702;9.410;2023-04-25T00:43:46;8.90;99.90
5870;DHT22;2961;47.702;9.410;2023-04-25T00:46:13;8.80;99.90
5870;DHT22;2961;47.702;9.410;2023-04-25T00:48:40;8.90;99.90
5870;DHT22;2961;47.702;9.410;2023-04-25T00:51:07;8.90;99.90
5870;DHT22;2961;47.702;9.410;2023-04-25T00:53:33;8.80;99.90
5870;DHT22;2961;47.702;9.410;2023-04-25T00:56:00;8.80;99.90
5870;DHT22;2961;47.702;9.410;2023-04-25T00:58:28;8.80;99.90
5870;DHT22;2961;47.702;9.410;2023-04-25T01:00:56;8.80;99.90
5870;DHT22;2961;47.702;9.410;2023-04-25T01:03:24;8.80;99.90
5870;DHT22;2961;47.702;9.410;2023-04-25T01:05:54;8.70;99.90
5870;DHT22;2961;47.702;9.410;2023-04-25T01:08:23;8.60;99.90
5870;DHT22;2961;47.702;9.410;2023-04-25T01:10:51;8.60;99.90
5870;DHT22;2961;47.702;9.410;2023-04-25T01:13:18;8.60;99.90
5870;DHT22;2961;47.702;9.410;2023-04-25T01:15:46;8.60;99.90
5870;DHT22;2961;47.702;9.410;2023-04-25T01:18:14;8.50;99.90
5870;DHT22;2961;47.702;9.410;2023-04-25T01:20:41;8.60;99.90
5870;DHT22;2961;47.702;9.410;2023-04-25T01:23:10;8.50;99.90
5870;DHT22;2961;47.702;9.410;2023-04-25T01:25:37;8.50;99.90
5870;DHT22;2961;47.702;9.410;2023-04-25T01:28:04;8.50;99.90
5870;DHT22;2961;47.702;9.410;2023-04-25T01:30:31;8.50;99.90
5870;DHT22;2961;47.702;9.410;2023-04-25T01:32:59;8.40;99.90
5870;DHT22;2961;47.702;9.410;2023-04-25T01:35:26;8.40;99.90
5870;DHT22;2961;47.702;9.410;2023-04-25T01:37:53;8.40;99.90
5870;DHT22;2961;47.702;9.410;2023-04-25T01:40:22;8.30;99.90
5870;DHT22;2961;47.702;9.410;2023-04-25T01:42:51;8.30;99.90
5870;DHT22;2961;47.702;9.410;2023-04-25T01:45:18;8.30;99.90
5870;DHT22;2961;47.702;9.410;2023-04-25T01:47:45;8.30;99.90
5870;DHT22;2961;47.702;9.410;2023-04-25T01:50:15;8.30;99.90
5870;DHT22;2961;47.702;9.410;2023-04-25T01:52:42;8.40;99.90
5870;DHT22;2961;47.702;9.410;2023-04-25T01:55:11;8.40;99.90
5870;DHT22;2961;47.702;9.410;2023-04-25T01:57:39;8.40;99.90
5870;DHT22;2961;47.702;9.410;2023-04-25T02:00:07;8.40;99.90
5870;DHT22;2961;47.702;9.410;2023-04-25T02:02:35;8.30;99.90
5870;DHT22;2961;47.702;9.410;2023-04-25T02:05:02;8.30;99.90
5870;DHT22;2961;47.702;9.410;2023-04-25T02:07:29;8.10;99.90
5870;DHT22;2961;47.702;9.410;2023-04-25T02:09:55;7.90;99.90
5870;DHT22;2961;47.702;9.410;2023-04-25T02:12:22;7.70;99.90
5870;DHT22;2961;47.702;9.410;2023-04-25T02:14:51;7.50;99.90
5870;DHT22;2961;47.702;9.410;2023-04-25T02:17:18;7.40;99.90
5870;DHT22;2961;47.702;9.410;2023-04-25T02:19:44;7.20;99.90
5870;DHT22;2961;47.702;9.410;2023-04-25T02:22:11;7.10;99.90
5870;DHT22;2961;47.702;9.410;2023-04-25T02:24:38;6.90;99.90
5870;DHT22;2961;47.702;9.410;2023-04-25T02:27:05;6.80;99.90
5870;DHT22;2961;47.702;9.410;2023-04-25T02:29:33;6.60;99.90
5870;DHT22;2961;47.702;9.410;2023-04-25T02:32:01;6.40;99.90
5870;DHT22;2961;47.702;9.410;2023-04-25T02:34:28;6.30;99.90
5870;DHT22;2961;47.702;9.410;2023-04-25T02:36:55;6.30;99.90
5870;DHT22;2961;47.702;9.410;2023-04-25T02:39:22;6.10;99.90
5870;DHT22;2961;47.702;9.410;2023-04-25T02:41:50;6.10;99.90
5870;DHT22;2961;47.702;9.410;2023-04-25T02:44:17;6.10;99.90
5870;DHT22;2961;47.702;9.410;2023-04-25T02:46:44;6.10;99.90
5870;DHT22;2961;47.702;9.410;2023-04-25T02:49:12;6.00;99.90
5870;DHT22;2961;47.702;9.410;2023-04-25T02:51:38;5.80;99.90
5870;DHT22;2961;47.702;9.410;2023-04-25T02:54:05;5.60;99.90
5870;DHT22;2961;47.702;9.410;2023-04-25T02:56:32;5.50;99.90
5870;DHT22;2961;47.702;9.410;2023-04-25T02:58:59;5.30;99.90
5870;DHT22;2961;47.702;9.410;2023-04-25T03:01:26;5.10;99.90
5870;DHT22;2961;47.702;9.410;2023-04-25T03:03:52;5.10;99.90
5870;DHT22;2961;47.702;9.410;2023-04-25T03:06:21;5.20;99.90
5870;DHT22;2961;47.702;9.410;2023-04-25T03:08:47;5.20;99.90
5870;DHT22;2961;47.702;9.410;2023-04-25T03:11:14;5.10;99.90
5870;DHT22;2961;47.702;9.410;2023-04-25T03:13:41;4.90;99.90
5870;DHT22;2961;47.702;9.410;2023-04-25T03:16:08;4.80;99.90
5870;DHT22;2961;47.702;9.410;2023-04-25T03:18:35;4.80;99.90
5870;DHT22;2961;47.702;9.410;2023-04-25T03:21:02;4.80;99.90
5870;DHT22;2961;47.702;9.410;2023-04-25T03:23:30;4.70;99.90
5870;DHT22;2961;47.702;9.410;2023-04-25T03:25:57;4.60;99.90
5870;DHT22;2961;47.702;9.410;2023-04-25T03:28:23;4.70;99.90
5870;DHT22;2961;47.702;9.410;2023-04-25T03:30:50;4.60;99.90
5870;DHT22;2961;47.702;9.410;2023-04-25T03:33:17;4.50;99.90
5870;DHT22;2961;47.702;9.410;2023-04-25T03:35:44;4.40;99.90
5870;DHT22;2961;47.702;9.410;2023-04-25T03:38:11;4.30;99.90
5870;DHT22;2961;47.702;9.410;2023-04-25T03:40:39;4.20;99.90
5870;DHT22;2961;47.702;9.410;2023-04-25T03:43:05;4.10;99.90
5870;DHT22;2961;47.702;9.410;2023-04-25T03:45:32;4.00;99.90
5870;DHT22;2961;47.702;9.410;2023-04-25T03:47:59;4.00;99.90
5870;DHT22;2961;47.702;9.410;2023-04-25T03:50:26;4.00;99.90
5870;DHT22;2961;47.702;9.410;2023-04-25T03:52:52;4.00;99.90
5870;DHT22;2961;47.702;9.410;2023-04-25T03:55:19;4.00;99.90
5870;DHT22;2961;47.702;9.410;2023-04-25T03:57:47;3.90;99.90
5870;DHT22;2961;47.702;9.410;2023-04-25T04:00:15;3.80;99.90
5870;DHT22;2961;47.702;9.410;2023-04-25T04:02:41;3.80;99.90
5870;DHT22;2961;47.702;9.410;2023-04-25T04:05:08;3.70;99.90
5870;DHT22;2961;47.702;9.410;2023-04-25T04:07:35;3.70;99.90
5870;DHT22;2961;47.702;9.410;2023-04-25T04:10:06;3.70;99.90
5870;DHT22;2961;47.702;9.410;2023-04-25T04:12:33;3.80;99.90
5870;DHT22;2961;47.702;9.410;2023-04-25T04:15:01;3.80;99.90
5870;DHT22;2961;47.702;9.410;2023-04-25T04:17:29;3.80;99.90
5870;DHT22;2961;47.702;9.410;2023-04-25T04:19:55;3.90;99.90
5870;DHT22;2961;47.702;9.410;2023-04-25T04:22:22;4.00;99.90
5870;DHT22;2961;47.702;9.410;2023-04-25T04:24:49;4.00;99.90
5870;DHT22;2961;47.702;9.410;2023-04-25T04:27:17;3.80;99.90
5870;DHT22;2961;47.702;9.410;2023-04-25T04:29:44;3.80;99.90
5870;DHT22;2961;47.702;9.410;2023-04-25T04:32:13;3.90;99.90
5870;DHT22;2961;47.702;9.410;2023-04-25T04:34:40;3.90;99.90
5870;DHT22;2961;47.702;9.410;2023-04-25T04:37:07;3.90;99.90
5870;DHT22;2961;47.702;9.410;2023-04-25T04:39:35;3.80;99.90
5870;DHT22;2961;47.702;9.410;2023-04-25T04:42:02;3.70;99.90
5870;DHT22;2961;47.702;9.410;2023-04-25T04:44:30;3.80;99.90
5870;DHT22;2961;47.702;9.410;2023-04-25T04:46:58;4.00;99.90
5870;DHT22;2961;47.702;9.410;2023-04-25T04:49:26;4.10;99.90
5870;DHT22;2961;47.702;9.410;2023-04-25T04:51:54;4.30;99.90
5870;DHT22;2961;47.702;9.410;2023-04-25T04:54:21;4.50;99.90
5870;DHT22;2961;47.702;9.410;2023-04-25T04:56:47;4.70;99.90
5870;DHT22;2961;47.702;9.410;2023-04-25T04:59:15;4.80;99.90
5870;DHT22;2961;47.702;9.410;2023-04-25T05:01:42;5.00;99.90
5870;DHT22;2961;47.702;9.410;2023-04-25T05:04:09;5.20;99.90
5870;DHT22;2961;47.702;9.410;2023-04-25T05:06:37;5.30;99.90
5870;DHT22;2961;47.702;9.410;2023-04-25T05:09:03;5.50;99.90
5870;DHT22;2961;47.702;9.410;2023-04-25T05:11:30;5.70;99.90
5870;DHT22;2961;47.702;9.410;2023-04-25T05:13:57;6.00;99.90
5870;DHT22;2961;47.702;9.410;2023-04-25T05:16:24;6.20;99.90
5870;DHT22;2961;47.702;9.410;2023-04-25T05:18:50;6.30;99.90
5870;DHT22;2961;47.702;9.410;2023-04-25T05:21:17;6.60;99.90
5870;DHT22;2961;47.702;9.410;2023-04-25T05:23:45;6.80;99.90
5870;DHT22;2961;47.702;9.410;2023-04-25T05:26:12;7.10;99.90
5870;DHT22;2961;47.702;9.410;2023-04-25T05:28:40;7.40;99.90
5870;DHT22;2961;47.702;9.410;2023-04-25T05:31:07;7.60;99.90
5870;DHT22;2961;47.702;9.410;2023-04-25T05:33:35;7.70;99.90
5870;DHT22;2961;47.702;9.410;2023-04-25T05:36:02;7.80;99.90
5870;DHT22;2961;47.702;9.410;2023-04-25T05:38:29;7.90;99.90
5870;DHT22;2961;47.702;9.410;2023-04-25T05:40:57;8.00;99.90
5870;DHT22;2961;47.702;9.410;2023-04-25T05:43:24;8.20;99.90
5870;DHT22;2961;47.702;9.410;2023-04-25T05:45:50;8.30;99.90
5870;DHT22;2961;47.702;9.410;2023-04-25T05:48:17;8.40;99.90
5870;DHT22;2961;47.702;9.410;2023-04-25T05:50:44;8.50;99.90
5870;DHT22;2961;47.702;9.410;2023-04-25T05:53:11;8.70;99.90
5870;DHT22;2961;47.702;9.410;2023-04-25T05:55:37;8.90;99.90
5870;DHT22;2961;47.702;9.410;2023-04-25T05:58:06;9.20;99.90
5870;DHT22;2961;47.702;9.410;2023-04-25T06:00:33;9.90;99.90
5870;DHT22;2961;47.702;9.410;2023-04-25T06:03:00;11.10;99.90
5870;DHT22;2961;47.702;9.410;2023-04-25T06:05:27;12.00;99.90
5870;DHT22;2961;47.702;9.410;2023-04-25T06:07:54;12.60;99.90
5870;DHT22;2961;47.702;9.410;2023-04-25T06:10:35;12.80;99.90
5870;DHT22;2961;47.702;9.410;2023-04-25T06:13:02;13.00;99.90
5870;DHT22;2961;47.702;9.410;2023-04-25T06:15:30;12.80;99.90
5870;DHT22;2961;47.702;9.410;2023-04-25T06:17:58;12.50;99.90
5870;DHT22;2961;47.702;9.410;2023-04-25T06:20:24;11.90;99.90
5870;DHT22;2961;47.702;9.410;2023-04-25T06:22:51;11.80;99.90
5870;DHT22;2961;47.702;9.410;2023-04-25T06:25:18;12.40;99.90
5870;DHT22;2961;47.702;9.410;2023-04-25T06:27:45;13.10;99.90
5870;DHT22;2961;47.702;9.410;2023-04-25T06:30:12;13.90;99.90
5870;DHT22;2961;47.702;9.410;2023-04-25T06:32:40;14.40;99.90
5870;DHT22;2961;47.702;9.410;2023-04-25T06:35:08;15.20;99.90
5870;DHT22;2961;47.702;9.410;2023-04-25T06:37:35;15.70;99.90
5870;DHT22;2961;47.702;9.410;2023-04-25T06:40:02;15.70;97.80
5870;DHT22;2961;47.702;9.410;2023-04-25T06:42:29;15.10;95.60
5870;DHT22;2961;47.702;9.410;2023-04-25T06:44:56;14.70;96.80
5870;DHT22;2961;47.702;9.410;2023-04-25T06:47:23;14.60;97.70
5870;DHT22;2961;47.702;9.410;2023-04-25T06:49:51;14.70;99.90
5870;DHT22;2961;47.702;9.410;2023-04-25T06:52:18;14.80;99.90
5870;DHT22;2961;47.702;9.410;2023-04-25T06:54:44;14.90;99.90
5870;DHT22;2961;47.702;9.410;2023-04-25T06:57:11;15.40;99.90
5870;DHT22;2961;47.702;9.410;2023-04-25T06:59:38;15.90;98.60
5870;DHT22;2961;47.702;9.410;2023-04-25T07:02:05;16.80;94.10
5870;DHT22;2961;47.702;9.410;2023-04-25T07:04:32;17.10;90.70
5870;DHT22;2961;47.702;9.410;2023-04-25T07:07:00;17.20;89.90
5870;DHT22;2961;47.702;9.410;2023-04-25T07:09:28;17.10;90.90
5870;DHT22;2961;47.702;9.410;2023-04-25T07:11:55;16.60;91.00
5870;DHT22;2961;47.702;9.410;2023-04-25T07:14:22;16.20;91.10
5870;DHT22;2961;47.702;9.410;2023-04-25T07:16:48;15.60;93.60
5870;DHT22;2961;47.702;9.410;2023-04-25T07:19:15;15.00;92.20
5870;DHT22;2961;47.702;9.410;2023-04-25T07:21:42;14.30;95.30
5870;DHT22;2961;47.702;9.410;2023-04-25T07:24:10;13.80;94.90
5870;DHT22;2961;47.702;9.410;2023-04-25T07:26:37;13.20;94.60
5870;DHT22;2961;47.702;9.410;2023-04-25T07:29:04;12.80;96.20
5870;DHT22;2961;47.702;9.410;2023-04-25T07:31:30;12.40;97.10
5870;DHT22;2961;47.702;9.410;2023-04-25T07:33:57;12.00;98.10
5870;DHT22;2961;47.702;9.410;2023-04-25T07:36:24;11.80;99.90
5870;DHT22;2961;47.702;9.410;2023-04-25T07:38:51;11.40;99.90
5870;DHT22;2961;47.702;9.410;2023-04-25T07:41:20;11.20;99.90
5870;DHT22;2961;47.702;9.410;2023-04-25T07:43:46;10.70;99.90
5870;DHT22;2961;47.702;9.410;2023-04-25T07:46:13;10.40;99.90
5870;DHT22;2961;47.702;9.410;2023-04-25T07:48:40;9.90;99.90
5870;DHT22;2961;47.702;9.410;2023-04-25T07:51:07;9.60;99.90
5870;DHT22;2961;47.702;9.410;2023-04-25T07:53:33;9.50;99.90
5870;DHT22;2961;47.702;9.410;2023-04-25T07:56:03;9.30;99.90
5870;DHT22;2961;47.702;9.410;2023-04-25T07:58:31;9.10;99.90
5870;DHT22;2961;47.702;9.410;2023-04-25T08:00:57;8.80;99.90
5870;DHT22;2961;47.702;9.410;2023-04-25T08:03:24;8.60;99.90
5870;DHT22;2961;47.702;9.410;2023-04-25T08:05:51;8.30;99.90
5870;DHT22;2961;47.702;9.410;2023-04-25T08:08:18;8.10;99.90
5870;DHT22;2961;47.702;9.410;2023-04-25T08:10:44;8.00;99.90
5870;DHT22;2961;47.702;9.410;2023-04-25T08:13:13;7.80;99.90
5870;DHT22;2961;47.702;9.410;2023-04-25T08:15:41;7.70;99.90
5870;DHT22;2961;47.702;9.410;2023-04-25T08:18:08;7.60;99.90
5870;DHT22;2961;47.702;9.410;2023-04-25T08:20:35;7.60;99.90
5870;DHT22;2961;47.702;9.410;2023-04-25T08:23:02;7.60;99.90
5870;DHT22;2961;47.702;9.410;2023-04-25T08:25:28;7.60;99.90
5870;DHT22;2961;47.702;9.410;2023-04-25T08:27:55;7.60;99.90
5870;DHT22;2961;47.702;9.410;2023-04-25T08:30:22;7.60;99.90
5870;DHT22;2961;47.702;9.410;2023-04-25T08:32:50;7.60;99.90
5870;DHT22;2961;47.702;9.410;2023-04-25T08:35:17;7.70;99.90
5870;DHT22;2961;47.702;9.410;2023-04-25T08:40:51;7.80;99.90
5870;DHT22;2961;47.702;9.410;2023-04-25T08:43:19;7.80;99.90
5870;DHT22;2961;47.702;9.410;2023-04-25T08:45:47;7.80;99.90
5870;DHT22;2961;47.702;9.410;2023-04-25T08:48:16;7.70;99.90
5870;DHT22;2961;47.702;9.410;2023-04-25T08:50:48;7.70;99.90
5870;DHT22;2961;47.702;9.410;2023-04-25T08:53:17;7.60;99.90
5870;DHT22;2961;47.702;9.410;2023-04-25T08:55:46;7.60;99.90
5870;DHT22;2961;47.702;9.410;2023-04-25T08:58:14;7.60;99.90
5870;DHT22;2961;47.702;9.410;2023-04-25T09:00:41;7.60;99.90
5870;DHT22;2961;47.702;9.410;2023-04-25T09:03:08;7.60;99.90
5870;DHT22;2961;47.702;9.410;2023-04-25T09:05:36;7.60;99.90
5870;DHT22;2961;47.702;9.410;2023-04-25T09:08:03;7.60;99.90
5870;DHT22;2961;47.702;9.410;2023-04-25T09:10:44;7.70;99.90
5870;DHT22;2961;47.702;9.410;2023-04-25T09:13:13;7.70;99.90
5870;DHT22;2961;47.702;9.410;2023-04-25T09:15:50;7.80;99.90
5870;DHT22;2961;47.702;9.410;2023-04-25T09:18:24;7.90;99.90
5870;DHT22;2961;47.702;9.410;2023-04-25T09:20:53;7.90;99.90
5870;DHT22;2961;47.702;9.410;2023-04-25T09:23:39;7.90;99.90
5870;DHT22;2961;47.702;9.410;2023-04-25T09:26:07;7.70;99.90
5870;DHT22;2961;47.702;9.410;2023-04-25T09:28:34;7.50;99.90
5870;DHT22;2961;47.702;9.410;2023-04-25T09:31:01;7.40;99.90
5870;DHT22;2961;47.702;9.410;2023-04-25T09:33:29;7.30;99.90
5870;DHT22;2961;47.702;9.410;2023-04-25T09:36:04;7.30;99.90
5870;DHT22;2961;47.702;9.410;2023-04-25T09:38:32;7.30;99.90
5870;DHT22;2961;47.702;9.410;2023-04-25T09:41:05;7.40;99.90
5870;DHT22;2961;47.702;9.410;2023-04-25T09:43:32;7.40;99.90
5870;DHT22;2961;47.702;9.410;2023-04-25T09:45:59;7.60;99.90
5870;DHT22;2961;47.702;9.410;2023-04-25T09:48:27;7.70;99.90
5870;DHT22;2961;47.702;9.410;2023-04-25T09:51:06;8.00;99.90
5870;DHT22;2961;47.702;9.410;2023-04-25T09:53:33;8.30;99.90
5870;DHT22;2961;47.702;9.410;2023-04-25T09:56:03;8.40;99.90
5870;DHT22;2961;47.702;9.410;2023-04-25T09:58:31;8.70;99.90
5870;DHT22;2961;47.702;9.410;2023-04-25T10:01:00;9.00;99.90
5870;DHT22;2961;47.702;9.410;2023-04-25T10:03:29;9.30;99.90
5870;DHT22;2961;47.702;9.410;2023-04-25T10:05:58;9.60;99.90
5870;DHT22;2961;47.702;9.410;2023-04-25T10:08:30;9.60;99.90
5870;DHT22;2961;47.702;9.410;2023-04-25T10:10:59;9.50;99.90
5870;DHT22;2961;47.702;9.410;2023-04-25T10:13:27;9.40;99.90
5870;DHT22;2961;47.702;9.410;2023-04-25T10:15:55;9.30;99.90
5870;DHT22;2961;47.702;9.410;2023-04-25T10:18:24;9.20;99.90
5870;DHT22;2961;47.702;9.410;2023-04-25T10:20:51;9.40;99.90
5870;DHT22;2961;47.702;9.410;2023-04-25T10:23:18;9.50;99.90
5870;DHT22;2961;47.702;9.410;2023-04-25T10:25:47;9.40;99.90
5870;DHT22;2961;47.702;9.410;2023-04-25T10:28:14;9.30;99.90
5870;DHT22;2961;47.702;9.410;2023-04-25T10:30:59;9.00;99.90
5870;DHT22;2961;47.702;9.410;2023-04-25T10:33:32;8.90;99.90
5870;DHT22;2961;47.702;9.410;2023-04-25T10:36:08;8.70;99.90
5870;DHT22;2961;47.702;9.410;2023-04-25T10:38:36;8.70;99.90
5870;DHT22;2961;47.702;9.410;2023-04-25T10:41:06;8.70;99.90
5870;DHT22;2961;47.702;9.410;2023-04-25T10:43:35;8.60;99.90
5870;DHT22;2961;47.702;9.410;2023-04-25T10:48:45;8.80;99.90
5870;DHT22;2961;47.702;9.410;2023-04-25T10:51:16;8.90;99.90
5870;DHT22;2961;47.702;9.410;2023-04-25T10:53:44;9.00;99.90
5870;DHT22;2961;47.702;9.410;2023-04-25T10:56:17;9.00;99.90
5870;DHT22;2961;47.702;9.410;2023-04-25T10:58:44;8.80;99.90
5870;DHT22;2961;47.702;9.410;2023-04-25T11:01:12;8.70;99.90
5870;DHT22;2961;47.702;9.410;2023-04-25T11:03:40;8.60;99.90
5870;DHT22;2961;47.702;9.410;2023-04-25T11:06:15;8.60;99.90
5870;DHT22;2961;47.702;9.410;2023-04-25T11:08:49;8.60;99.90
5870;DHT22;2961;47.702;9.410;2023-04-25T11:11:17;8.60;99.90
5870;DHT22;2961;47.702;9.410;2023-04-25T11:13:48;8.60;99.90
5870;DHT22;2961;47.702;9.410;2023-04-25T11:16:15;8.70;99.90
5870;DHT22;2961;47.702;9.410;2023-04-25T11:18:42;8.90;99.90
5870;DHT22;2961;47.702;9.410;2023-04-25T11:21:09;9.10;99.90
5870;DHT22;2961;47.702;9.410;2023-04-25T11:23:36;9.40;99.90
5870;DHT22;2961;47.702;9.410;2023-04-25T11:26:03;9.80;99.90
5870;DHT22;2961;47.702;9.410;2023-04-25T11:28:31;9.90;99.90
5870;DHT22;2961;47.702;9.410;2023-04-25T11:30:58;10.20;99.90
5870;DHT22;2961;47.702;9.410;2023-04-25T11:33:25;10.60;99.90
5870;DHT22;2961;47.702;9.410;2023-04-25T11:35:53;10.80;99.90
5870;DHT22;2961;47.702;9.410;2023-04-25T11:38:22;10.80;99.90
5870;DHT22;2961;47.702;9.410;2023-04-25T11:40:52;11.00;99.90
5870;DHT22;2961;47.702;9.410;2023-04-25T11:43:20;11.20;99.90
5870;DHT22;2961;47.702;9.410;2023-04-25T11:45:50;11.50;99.90
5870;DHT22;2961;47.702;9.410;2023-04-25T11:48:17;11.80;99.90
5870;DHT22;2961;47.702;9.410;2023-04-25T11:50:45;11.80;99.90
5870;DHT22;2961;47.702;9.410;2023-04-25T11:53:13;11.70;99.90
5870;DHT22;2961;47.702;9.410;2023-04-25T11:55:40;11.50;99.90
5870;DHT22;2961;47.702;9.410;2023-04-25T11:58:06;11.30;99.90
5870;DHT22;2961;47.702;9.410;2023-04-25T12:00:34;11.20;99.90
5870;DHT22;2961;47.702;9.410;2023-04-25T12:03:03;11.40;99.90
5870;DHT22;2961;47.702;9.410;2023-04-25T12:05:30;11.80;99.90
5870;DHT22;2961;47.702;9.410;2023-04-25T12:08:09;11.70;99.90
5870;DHT22;2961;47.702;9.410;2023-04-25T12:10:37;11.30;99.90
5870;DHT22;2961;47.702;9.410;2023-04-25T12:13:18;10.90;99.90
5870;DHT22;2961;47.702;9.410;2023-04-25T12:15:45;10.50;99.90
5870;DHT22;2961;47.702;9.410;2023-04-25T12:18:13;10.20;99.90
5870;DHT22;2961;47.702;9.410;2023-04-25T12:20:41;10.00;99.90
5870;DHT22;2961;47.702;9.410;2023-04-25T12:23:08;10.10;99.90
5870;DHT22;2961;47.702;9.410;2023-04-25T12:25:56;10.10;99.90
5870;DHT22;2961;47.702;9.410;2023-04-25T12:28:24;10.00;99.90
5870;DHT22;2961;47.702;9.410;2023-04-25T12:30:56;9.90;99.90
5870;DHT22;2961;47.702;9.410;2023-04-25T12:33:26;9.80;99.90
5870;DHT22;2961;47.702;9.410;2023-04-25T12:35:53;9.70;99.90
5870;DHT22;2961;47.702;9.410;2023-04-25T12:38:21;9.60;99.90
5870;DHT22;2961;47.702;9.410;2023-04-25T12:40:48;9.60;99.90
5870;DHT22;2961;47.702;9.410;2023-04-25T12:43:15;9.60;99.90
5870;DHT22;2961;47.702;9.410;2023-04-25T12:45:41;9.60;99.90
5870;DHT22;2961;47.702;9.410;2023-04-25T12:48:08;9.80;99.90
5870;DHT22;2961;47.702;9.410;2023-04-25T12:50:36;10.00;99.90
5870;DHT22;2961;47.702;9.410;2023-04-25T12:53:03;10.00;99.90
5870;DHT22;2961;47.702;9.410;2023-04-25T12:55:30;10.20;99.90
5870;DHT22;2961;47.702;9.410;2023-04-25T12:57:57;10.50;99.90
5870;DHT22;2961;47.702;9.410;2023-04-25T13:00:24;10.80;99.90
5870;DHT22;2961;47.702;9.410;2023-04-25T13:02:51;11.00;99.90
5870;DHT22;2961;47.702;9.410;2023-04-25T13:05:18;11.30;99.90
5870;DHT22;2961;47.702;9.410;2023-04-25T13:07:46;11.40;99.90
5870;DHT22;2961;47.702;9.410;2023-04-25T13:10:13;11.50;99.90
5870;DHT22;2961;47.702;9.410;2023-04-25T13:12:41;11.40;99.90
5870;DHT22;2961;47.702;9.410;2023-04-25T13:15:09;11.50;99.90
5870;DHT22;2961;47.702;9.410;2023-04-25T13:17:36;11.50;99.90
5870;DHT22;2961;47.702;9.410;2023-04-25T13:20:05;11.50;99.90
5870;DHT22;2961;47.702;9.410;2023-04-25T13:22:34;11.50;99.90
5870;DHT22;2961;47.702;9.410;2023-04-25T13:25:04;11.50;99.90
5870;DHT22;2961;47.702;9.410;2023-04-25T13:27:32;11.70;99.90
5870;DHT22;2961;47.702;9.410;2023-04-25T13:29:59;12.10;99.90
5870;DHT22;2961;47.702;9.410;2023-04-25T13:32:27;12.40;99.90
5870;DHT22;2961;47.702;9.410;2023-04-25T13:34:53;12.70;99.90
5870;DHT22;2961;47.702;9.410;2023-04-25T13:37:21;12.80;99.90
5870;DHT22;2961;47.702;9.410;2023-04-25T13:39:49;13.00;99.90
5870;DHT22;2961;47.702;9.410;2023-04-25T13:42:18;13.00;99.90
5870;DHT22;2961;47.702;9.410;2023-04-25T13:44:44;12.60;99.90
5870;DHT22;2961;47.702;9.410;2023-04-25T13:47:11;12.00;99.90
5870;DHT22;2961;47.702;9.410;2023-04-25T13:49:38;11.60;99.90
5870;DHT22;2961;47.702;9.410;2023-04-25T13:52:05;11.30;99.90
5870;DHT22;2961;47.702;9.410;2023-04-25T13:54:32;11.20;99.90
5870;DHT22;2961;47.702;9.410;2023-04-25T13:56:58;11.30;99.90
5870;DHT22;2961;47.702;9.410;2023-04-25T13:59:27;11.30;99.90
5870;DHT22;2961;47.702;9.410;2023-04-25T14:01:54;11.30;99.90
5870;DHT22;2961;47.702;9.410;2023-04-25T14:04:20;11.30;99.90
5870;DHT22;2961;47.702;9.410;2023-04-25T14:06:47;11.30;99.90
5870;DHT22;2961;47.702;9.410;2023-04-25T14:09:14;11.20;99.90
5870;DHT22;2961;47.702;9.410;2023-04-25T14:11:41;11.40;99.90
5870;DHT22;2961;47.702;9.410;2023-04-25T14:14:08;11.70;99.90
5870;DHT22;2961;47.702;9.410;2023-04-25T14:16:36;11.90;99.90
5870;DHT22;2961;47.702;9.410;2023-04-25T14:19:03;12.20;99.90
5870;DHT22;2961;47.702;9.410;2023-04-25T14:21:29;12.00;99.90
5870;DHT22;2961;47.702;9.410;2023-04-25T14:23:58;11.90;99.90
5870;DHT22;2961;47.702;9.410;2023-04-25T14:26:24;11.70;99.90
5870;DHT22;2961;47.702;9.410;2023-04-25T14:28:52;11.60;99.90
5870;DHT22;2961;47.702;9.410;2023-04-25T14:31:18;11.50;99.90
5870;DHT22;2961;47.702;9.410;2023-04-25T14:33:47;11.40;99.90
5870;DHT22;2961;47.702;9.410;2023-04-25T14:36:14;11.50;99.90
5870;DHT22;2961;47.702;9.410;2023-04-25T14:38:41;11.50;99.90
5870;DHT22;2961;47.702;9.410;2023-04-25T14:41:08;11.50;99.90
5870;DHT22;2961;47.702;9.410;2023-04-25T14:43:36;11.50;99.90
5870;DHT22;2961;47.702;9.410;2023-04-25T14:46:03;11.60;99.90
5870;DHT22;2961;47.702;9.410;2023-04-25T14:48:30;11.60;99.90
5870;DHT22;2961;47.702;9.410;2023-04-25T14:50:58;11.60;99.90
5870;DHT22;2961;47.702;9.410;2023-04-25T14:53:25;11.40;99.90
5870;DHT22;2961;47.702;9.410;2023-04-25T14:55:52;11.30;99.90
5870;DHT22;2961;47.702;9.410;2023-04-25T14:58:19;11.00;99.90
5870;DHT22;2961;47.702;9.410;2023-04-25T15:00:47;10.70;99.90
5870;DHT22;2961;47.702;9.410;2023-04-25T15:03:13;10.50;99.90
5870;DHT22;2961;47.702;9.410;2023-04-25T15:05:42;10.10;99.90
5870;DHT22;2961;47.702;9.410;2023-04-25T15:08:10;9.80;99.90
5870;DHT22;2961;47.702;9.410;2023-04-25T15:10:37;9.60;99.90
5870;DHT22;2961;47.702;9.410;2023-04-25T15:13:04;9.40;99.90
5870;DHT22;2961;47.702;9.410;2023-04-25T15:15:31;9.30;99.90
5870;DHT22;2961;47.702;9.410;2023-04-25T15:17:58;9.20;99.90
5870;DHT22;2961;47.702;9.410;2023-04-25T15:20:25;9.00;99.90
5870;DHT22;2961;47.702;9.410;2023-04-25T15:22:53;9.00;99.90
5870;DHT22;2961;47.702;9.410;2023-04-25T15:25:21;9.00;99.90
5870;DHT22;2961;47.702;9.410;2023-04-25T15:27:48;9.00;99.90
5870;DHT22;2961;47.702;9.410;2023-04-25T15:30:17;8.90;99.90
5870;DHT22;2961;47.702;9.410;2023-04-25T15:32:45;8.90;99.90
5870;DHT22;2961;47.702;9.410;2023-04-25T15:35:13;8.90;99.90
5870;DHT22;2961;47.702;9.410;2023-04-25T15:37:40;8.90;99.90
5870;DHT22;2961;47.702;9.410;2023-04-25T15:40:10;9.00;99.90
5870;DHT22;2961;47.702;9.410;2023-04-25T15:42:40;9.10;99.90
5870;DHT22;2961;47.702;9.410;2023-04-25T15:45:09;9.30;99.90
5870;DHT22;2961;47.702;9.410;2023-04-25T15:47:37;9.50;99.90
5870;DHT22;2961;47.702;9.410;2023-04-25T15:50:06;9.80;99.90
5870;DHT22;2961;47.702;9.410;2023-04-25T15:52:34;9.90;99.90
5870;DHT22;2961;47.702;9.410;2023-04-25T15:55:01;10.00;99.90
5870;DHT22;2961;47.702;9.410;2023-04-25T15:57:29;10.10;99.90
5870;DHT22;2961;47.702;9.410;2023-04-25T15:59:58;10.10;99.90
5870;DHT22;2961;47.702;9.410;2023-04-25T16:02:25;10.10;99.90
5870;DHT22;2961;47.702;9.410;2023-04-25T16:04:51;10.10;99.90
5870;DHT22;2961;47.702;9.410;2023-04-25T16:07:19;10.10;99.90
5870;DHT22;2961;47.702;9.410;2023-04-25T16:09:45;10.20;99.90
5870;DHT22;2961;47.702;9.410;2023-04-25T16:12:12;10.30;99.90
5870;DHT22;2961;47.702;9.410;2023-04-25T16:14:39;10.30;99.90
5870;DHT22;2961;47.702;9.410;2023-04-25T16:17:07;10.30;99.90
5870;DHT22;2961;47.702;9.410;2023-04-25T16:19:34;10.30;99.90
5870;DHT22;2961;47.702;9.410;2023-04-25T16:22:01;10.40;99.90